This is the latest recevied weather packets stored in our database for station/object EA6MI-10. If no packets are shown the sender has not sent any weather packets the latest 10 day(s).
| Time | Temp. | Humidity | Pressure | Rain* | Wind** | Luminosity | Snow |
|---|---|---|---|---|---|---|---|
| 1777458219 | 22.22° C | 55% | 1005.6 hPa | - | - | - | - |
| 1777457319 | 22.22° C | 54% | 1005.5 hPa | - | - | - | - |
| 1777456419 | 21.67° C | 54% | 1005.3 hPa | - | - | - | - |
| 1777455519 | 20.56° C | 52% | 1003.5 hPa | - | - | - | - |
| 1777454619 | 21.11° C | 53% | 1005 hPa | - | - | - | - |
| 1777453719 | 21.11° C | 53% | 1005.1 hPa | - | - | - | - |
| 1777452819 | 21.11° C | 53% | 1005.1 hPa | - | - | - | - |
| 1777451919 | 20.56° C | 53% | 1004.7 hPa | - | - | - | - |
| 1777451018 | 20.56° C | 55% | 1004.5 hPa | - | - | - | - |
| 1777450124 | 19.44° C | 59% | 1003.2 hPa | - | - | - | - |
| 1777450118 | 19.44° C | 59% | 1003.2 hPa | - | - | - | - |
| 1777449218 | 20° C | 57% | 1004.4 hPa | - | - | - | - |
| 1777448324 | 20° C | 58% | 1004.4 hPa | - | - | - | - |
| 1777447418 | 20° C | 58% | 1004.4 hPa | - | - | - | - |
| 1777446518 | 20° C | 59% | 1004.4 hPa | - | - | - | - |
| 1777444718 | 20° C | 57% | 1004 hPa | - | - | - | - |
| 1777443817 | 20° C | 57% | 1003.9 hPa | - | - | - | - |
| 1777442917 | 20° C | 57% | 1004 hPa | - | - | - | - |
| 1777442017 | 20° C | 56% | 1003.9 hPa | - | - | - | - |
| 1777441117 | 20° C | 56% | 1003.9 hPa | - | - | - | - |
| 1777440217 | 20° C | 56% | 1003.6 hPa | - | - | - | - |
| 1777439317 | 20° C | 55% | 1003.6 hPa | - | - | - | - |
| 1777438417 | 20° C | 55% | 1003.2 hPa | - | - | - | - |
| 1777437516 | 20.56° C | 55% | 1003.3 hPa | - | - | - | - |
| 1777436616 | 20.56° C | 55% | 1003.4 hPa | - | - | - | - |
* Rain since midnight (hover to see other rain measurements)
** Current wind speed in m/s (hover to see current wind gust speed)